Time;durP1;ratioP1;P1;durP2;ratioP2;P2;SDS_P1;SDS_P2;PMS_P1;PMS_P2;Temp;Humidity;BMP_temperature;BMP_pressure;BME280_temperature;BME280_humidity;BME280_pressure;Samples;Min_cycle;Max_cycle;Signal;HPM_P1;HPM_P2
2022/06/11 00:02:00;;;;;;;9.60;3.07;;;16.90;99.90;;;;;;5093110;28;20044;-79
2022/06/11 00:04:38;;;;;;;11.27;4.23;;;16.80;99.90;;;;;;5092949;28;20130;-78
2022/06/11 00:07:08;;;;;;;9.67;2.83;;;16.80;99.90;;;;;;5093334;28;20119;-78
2022/06/11 00:09:35;;;;;;;12.33;2.97;;;16.80;99.90;;;;;;5092943;28;20123;-78
2022/06/11 00:12:01;;;;;;;11.03;2.87;;;16.80;99.90;;;;;;5093427;28;20364;-78
2022/06/11 00:14:29;;;;;;;8.00;2.60;;;;;;;;;;5092800;28;20090;-78
2022/06/11 00:16:56;;;;;;;9.93;2.70;;;;;;;;;;5092979;28;20412;-79
2022/06/11 00:19:22;;;;;;;10.10;2.83;;;;;;;;;;5092692;28;20048;-78
2022/06/11 00:21:50;;;;;;;9.50;3.10;;;;;;;;;;5092838;28;20040;-79
2022/06/11 00:24:17;;;;;;;11.27;2.77;;;;;;;;;;5074536;28;20055;-79
2022/06/11 00:26:44;;;;;;;12.03;3.33;;;;;;;;;;5092738;28;20044;-79
2022/06/11 00:29:12;;;;;;;12.13;3.30;;;;;;;;;;5092963;28;20052;-79
2022/06/11 00:31:38;;;;;;;12.73;3.30;;;;;;;;;;5092884;28;20036;-79
2022/06/11 00:34:04;;;;;;;11.10;3.10;;;;;;;;;;5092898;28;20047;-79
2022/06/11 00:36:30;;;;;;;12.87;3.53;;;;;;;;;;5074633;28;20119;-79
2022/06/11 00:38:57;;;;;;;11.07;3.67;;;;;;;;;;5092624;28;20530;-79
2022/06/11 00:41:25;;;;;;;11.43;3.03;;;;;;;;;;5092666;28;20055;-78
2022/06/11 00:43:53;;;;;;;13.40;3.90;;;;;;;;;;5092988;28;20100;-79
2022/06/11 00:46:46;;;;;;;14.77;3.47;;;16.50;99.90;;;;;;5074578;28;20412;-79
2022/06/11 00:49:36;;;;;;;12.47;3.27;;;16.40;99.90;;;;;;5092519;28;20105;-79
2022/06/11 00:52:16;;;;;;;13.53;3.40;;;16.30;99.90;;;;;;5093019;28;20090;-79
2022/06/11 00:54:46;;;;;;;10.73;3.23;;;16.30;99.90;;;;;;5092883;28;20051;-78
2022/06/11 00:57:14;;;;;;;10.80;3.40;;;16.20;99.90;;;;;;5092683;28;20059;-79
2022/06/11 00:59:49;;;;;;;11.93;3.73;;;16.20;99.90;;;;;;5092205;28;20056;-78
2022/06/11 01:02:15;;;;;;;9.27;3.20;;;16.20;99.90;;;;;;5092425;28;20040;-75
2022/06/11 01:05:02;;;;;;;14.13;3.67;;;16.10;99.90;;;;;;5096621;28;20043;-79
2022/06/11 01:07:39;;;;;;;12.63;3.63;;;16.10;99.90;;;;;;5078130;28;20044;-79
2022/06/11 01:10:31;;;;;;;13.93;3.87;;;16.10;99.90;;;;;;5096360;28;20176;-79
2022/06/11 01:13:15;;;;;;;11.90;3.27;;;16.00;99.90;;;;;;5095734;28;20048;-79
2022/06/11 01:16:00;;;;;;;12.67;4.03;;;16.00;99.90;;;;;;5096169;28;20052;-79
2022/06/11 01:18:41;;;;;;;13.77;4.05;;;15.90;99.90;;;;;;5095842;28;20052;-78
2022/06/11 01:21:16;;;;;;;10.80;2.93;;;15.90;99.90;;;;;;5096469;28;20043;-78
2022/06/11 01:23:44;;;;;;;9.45;3.00;;;15.90;99.90;;;;;;5096139;28;20109;-78
2022/06/11 01:26:53;;;;;;;11.60;3.03;;;15.80;99.90;;;;;;5078064;28;20044;-78
2022/06/11 01:29:42;;;;;;;11.43;2.73;;;15.80;99.90;;;;;;5095948;28;20052;-78
2022/06/11 01:32:18;;;;;;;10.83;3.00;;;15.80;99.90;;;;;;5096208;28;20044;-78
2022/06/11 01:35:23;;;;;;;10.53;3.00;;;15.70;99.90;;;;;;5095942;28;20484;-78
2022/06/11 01:37:54;;;;;;;8.80;2.97;;;;;;;;;;5095998;28;20044;-78
2022/06/11 01:40:26;;;;;;;10.20;3.30;;;15.60;99.90;;;;;;5077085;28;20547;-78
2022/06/11 01:42:57;;;;;;;13.30;2.93;;;15.50;99.90;;;;;;5095604;28;20044;-79
2022/06/11 01:45:30;;;;;;;17.03;4.00;;;15.50;99.90;;;;;;5095094;28;20052;-78
2022/06/11 01:47:58;;;;;;;13.93;3.27;;;15.50;99.90;;;;;;5095561;28;20508;-78
2022/06/11 01:50:27;;;;;;;13.73;3.50;;;15.50;99.90;;;;;;5095458;28;20040;-78
2022/06/11 01:52:58;;;;;;;15.07;3.57;;;15.50;99.90;;;;;;5095565;28;20564;-78
2022/06/11 01:55:38;;;;;;;10.50;2.90;;;15.50;99.90;;;;;;5095487;28;20119;-78
2022/06/11 01:58:10;;;;;;;15.70;3.90;;;15.50;99.90;;;;;;5095537;28;20073;-79
2022/06/11 02:00:41;;;;;;;11.17;2.83;;;15.50;99.90;;;;;;5095449;28;20051;-78
2022/06/11 02:03:28;;;;;;;14.00;3.70;;;15.50;99.90;;;;;;5095426;28;20040;-79
2022/06/11 02:05:57;;;;;;;12.30;3.37;;;15.40;99.90;;;;;;5095678;28;20083;-79
2022/06/11 02:08:26;;;;;;;11.83;3.43;;;15.40;99.90;;;;;;5094897;28;20044;-77
2022/06/11 02:11:30;;;;;;;14.20;4.00;;;15.40;99.90;;;;;;5095348;28;20126;-78
2022/06/11 02:14:18;;;;;;;14.20;3.90;;;15.40;99.90;;;;;;5052644;28;20041;-79
2022/06/11 02:16:52;;;;;;;11.37;3.07;;;15.40;99.90;;;;;;5052476;28;20084;-78
2022/06/11 02:19:25;;;;;;;15.90;4.68;;;15.40;99.90;;;;;;5063652;28;20088;-79
2022/06/11 02:22:01;;;;;;;19.97;4.03;;;15.40;99.90;;;;;;5094700;28;20051;-78
2022/06/11 02:24:39;;;;;;;15.60;3.53;;;;;;;;;;5077118;28;20048;-78
2022/06/11 02:27:10;;;;;;;12.17;3.63;;;;;;;;;;5095005;28;20055;-80
2022/06/11 02:29:36;;;;;;;17.37;3.77;;;;;;;;;;5094882;28;20044;-78
2022/06/11 02:32:07;;;;;;;16.53;3.60;;;;;;;;;;5094913;28;20043;-79
2022/06/11 02:34:37;;;;;;;17.40;3.57;;;;;;;;;;5094552;28;20127;-77
2022/06/11 02:37:23;;;;;;;11.67;3.50;;;;;;;;;;5094885;28;20044;-79
2022/06/11 02:39:50;;;;;;;13.93;4.00;;;;;;;;;;5094347;28;20097;-79
2022/06/11 02:42:17;;;;;;;14.53;3.37;;;;;;;;;;5094837;28;20101;-79
2022/06/11 02:44:43;;;;;;;16.50;4.63;;;;;;;;;;5094381;28;20044;-79
2022/06/11 02:47:11;;;;;;;17.23;4.07;;;;;;;;;;5076811;28;20051;-78
2022/06/11 02:49:37;;;;;;;12.77;3.30;;;;;;;;;;5094255;28;20135;-79
2022/06/11 02:52:08;;;;;;;13.73;4.10;;;;;;;;;;5094375;28;20541;-79
2022/06/11 02:54:34;;;;;;;16.17;3.60;;;;;;;;;;5094340;28;20723;-78
2022/06/11 02:57:05;;;;;;;12.47;3.57;;;;;;;;;;5094442;28;20044;-79
2022/06/11 02:59:31;;;;;;;18.73;3.83;;;;;;;;;;5094110;28;20285;-78
2022/06/11 03:01:57;;;;;;;20.03;4.90;;;;;;;;;;5094260;28;20066;-78
2022/06/11 03:04:24;;;;;;;19.83;4.20;;;;;;;;;;5094131;28;20044;-79
2022/06/11 03:06:51;;;;;;;12.90;3.23;;;15.60;99.90;;;;;;5093909;28;20055;-79
2022/06/11 03:09:21;;;;;;;16.60;4.43;;;15.40;99.90;;;;;;5094078;28;20130;-78
2022/06/11 03:11:47;;;;;;;11.57;3.73;;;15.30;99.90;;;;;;5076158;28;20067;-78
2022/06/11 03:14:14;;;;;;;13.80;3.67;;;15.30;99.90;;;;;;5094031;28;20044;-79
2022/06/11 03:16:40;;;;;;;15.50;3.90;;;15.20;99.90;;;;;;5093734;28;20408;-79
2022/06/11 03:19:07;;;;;;;16.37;4.60;;;15.20;99.90;;;;;;5076017;28;20286;-78
2022/06/11 03:21:34;;;;;;;20.47;3.90;;;15.20;99.90;;;;;;5075362;28;20083;-78
2022/06/11 03:23:59;;;;;;;15.87;4.10;;;15.10;99.90;;;;;;5094250;28;20641;-79
2022/06/11 03:26:26;;;;;;;17.10;4.47;;;15.10;99.90;;;;;;5093100;28;20282;-79
2022/06/11 03:28:52;;;;;;;16.90;4.27;;;15.10;99.90;;;;;;5093475;28;20914;-79
2022/06/11 03:31:18;;;;;;;13.90;4.20;;;15.10;99.90;;;;;;5093747;28;20286;-72
2022/06/11 03:33:44;;;;;;;13.17;3.93;;;15.10;99.90;;;;;;5092610;28;20551;-69
2022/06/11 03:36:12;;;;;;;15.97;4.20;;;15.10;99.90;;;;;;5093674;28;20131;-74
2022/06/11 03:38:40;;;;;;;16.67;3.90;;;15.10;99.90;;;;;;5092956;28;20044;-74
2022/06/11 03:41:07;;;;;;;14.47;4.20;;;15.20;99.90;;;;;;5093387;28;20270;-72
2022/06/11 03:43:33;;;;;;;15.60;4.20;;;15.20;99.90;;;;;;5093390;28;20286;-74
2022/06/11 03:45:59;;;;;;;16.20;4.03;;;15.10;99.90;;;;;;5093143;28;20130;-72
2022/06/11 03:48:28;;;;;;;18.50;5.23;;;15.20;99.90;;;;;;5093176;28;20122;-75
2022/06/11 03:50:55;;;;;;;18.87;4.43;;;15.20;99.90;;;;;;5092991;28;20043;-76
2022/06/11 03:53:20;;;;;;;20.10;5.03;;;15.20;99.90;;;;;;5093105;28;20058;-77
2022/06/11 03:55:46;;;;;;;17.00;4.33;;;15.20;99.90;;;;;;5092849;28;20357;-77
2022/06/11 03:58:14;;;;;;;18.30;4.97;;;15.20;99.90;;;;;;5075560;28;20043;-76
2022/06/11 04:03:26;;;;;;;21.50;5.82;;;15.20;99.90;;;;;;5093299;28;20055;-76
2022/06/11 04:05:53;;;;;;;18.90;5.27;;;15.20;99.90;;;;;;5092961;28;20047;-76
2022/06/11 04:08:22;;;;;;;20.73;5.30;;;15.30;99.90;;;;;;5093273;28;20672;-76
2022/06/11 04:10:48;;;;;;;20.47;4.93;;;15.30;99.90;;;;;;5074683;28;20051;-76
2022/06/11 04:13:16;;;;;;;18.67;4.97;;;15.30;99.90;;;;;;5092833;28;20076;-75
2022/06/11 04:15:42;;;;;;;21.33;4.87;;;15.40;99.90;;;;;;5092274;28;20245;-74
2022/06/11 04:18:16;;;;;;;14.03;4.03;;;15.40;99.90;;;;;;5092963;28;20361;-75
2022/06/11 04:20:42;;;;;;;20.87;5.00;;;15.40;99.90;;;;;;5092604;28;20040;-71
2022/06/11 04:23:08;;;;;;;19.67;4.93;;;15.50;99.90;;;;;;5093048;28;20424;-79
2022/06/11 04:25:34;;;;;;;15.90;4.00;;;15.60;99.90;;;;;;5092921;28;20044;-79
2022/06/11 04:28:00;;;;;;;18.30;5.73;;;15.60;99.90;;;;;;5074554;28;20052;-78
2022/06/11 04:30:26;;;;;;;18.63;5.27;;;15.70;99.90;;;;;;5093030;28;20071;-79
2022/06/11 04:32:51;;;;;;;23.53;4.73;;;15.80;99.90;;;;;;5074844;28;20040;-78
2022/06/11 04:35:17;;;;;;;23.10;5.10;;;15.90;99.90;;;;;;5093000;28;20051;-79
2022/06/11 04:37:43;;;;;;;17.77;5.07;;;15.90;99.90;;;;;;5093349;28;20044;-79
2022/06/11 04:40:09;;;;;;;18.57;4.73;;;15.90;99.90;;;;;;5078646;28;20056;-79
2022/06/11 04:42:35;;;;;;;20.90;5.20;;;15.90;99.90;;;;;;5096791;28;20048;-79
2022/06/11 04:45:03;;;;;;;20.27;5.00;;;16.10;99.90;;;;;;5096508;28;20878;-79
2022/06/11 04:47:30;;;;;;;22.60;5.40;;;16.20;99.90;;;;;;5097146;28;20054;-79
2022/06/11 04:49:58;;;;;;;25.37;5.60;;;16.30;99.90;;;;;;5096430;28;20523;-79
2022/06/11 04:52:24;;;;;;;19.90;4.80;;;16.40;99.90;;;;;;5096708;28;20040;-79
2022/06/11 04:54:50;;;;;;;20.73;5.53;;;16.40;99.90;;;;;;5078313;28;20036;-79
2022/06/11 04:57:16;;;;;;;24.30;5.70;;;16.50;99.90;;;;;;5096630;28;20040;-79
2022/06/11 04:59:42;;;;;;;19.33;5.03;;;16.40;99.90;;;;;;5079022;28;20048;-81
2022/06/11 05:02:08;;;;;;;18.70;5.37;;;16.40;99.90;;;;;;5096570;28;20044;-79
2022/06/11 05:04:34;;;;;;;21.70;5.40;;;16.50;99.90;;;;;;5096647;28;20048;-80
2022/06/11 05:07:00;;;;;;;24.47;5.43;;;16.50;99.90;;;;;;5096312;28;20123;-80
2022/06/11 05:09:28;;;;;;;23.10;6.33;;;16.60;99.90;;;;;;5096418;28;20544;-80
2022/06/11 05:11:54;;;;;;;26.60;6.43;;;16.70;99.90;;;;;;5096096;28;20048;-80
2022/06/11 05:14:21;;;;;;;19.13;5.33;;;16.80;99.90;;;;;;5078484;28;20522;-80
2022/06/11 05:16:47;;;;;;;25.53;5.80;;;16.90;99.90;;;;;;5096262;28;20101;-80
2022/06/11 05:19:15;;;;;;;15.70;4.87;;;;;;;;;;5096381;28;20051;-80
2022/06/11 05:21:41;;;;;;;18.57;4.77;;;17.20;99.90;;;;;;5096206;28;20044;-80
2022/06/11 05:24:08;;;;;;;30.50;7.77;;;17.20;99.90;;;;;;5095858;28;20055;-80
2022/06/11 05:26:39;;;;;;;19.03;6.03;;;17.30;99.90;;;;;;5095971;28;20051;-79
2022/06/11 05:29:06;;;;;;;24.63;6.07;;;17.50;99.90;;;;;;5078116;28;20396;-80
2022/06/11 05:31:33;;;;;;;27.80;7.93;;;17.60;99.90;;;;;;5096123;28;20089;-80
2022/06/11 05:33:59;;;;;;;24.20;5.67;;;;;;;;;;5095809;28;20484;-80
2022/06/11 05:36:25;;;;;;;28.87;6.10;;;17.70;99.90;;;;;;5096123;28;20446;-80
2022/06/11 05:38:51;;;;;;;28.53;7.37;;;17.80;99.90;;;;;;5095323;28;20135;-79
2022/06/11 05:41:17;;;;;;;25.50;6.27;;;;;;;;;;5095743;28;20127;-79
2022/06/11 05:43:44;;;;;;;30.87;7.53;;;;;;;;;;5095869;28;20040;-79
2022/06/11 05:46:13;;;;;;;28.93;6.43;;;;;;;;;;5095262;28;20458;-80
2022/06/11 05:48:46;;;;;;;24.33;6.83;;;18.60;99.90;;;;;;5095198;28;20048;-80
2022/06/11 05:51:20;;;;;;;24.00;6.07;;;19.10;99.90;;;;;;5095171;28;20044;-79
2022/06/11 05:53:47;;;;;;;27.83;5.88;;;20.10;99.90;;;;;;5095553;28;20048;-79
2022/06/11 05:56:14;;;;;;;23.80;5.80;;;;;;;;;;5095243;28;20040;-80
2022/06/11 05:58:43;;;;;;;20.30;6.53;;;;;;;;;;5095395;28;20048;-80
2022/06/11 06:01:10;;;;;;;22.57;6.17;;;22.10;99.90;;;;;;5095100;28;20100;-79
2022/06/11 06:03:35;;;;;;;20.93;6.70;;;22.60;99.90;;;;;;5060849;28;20047;-80
2022/06/11 06:06:01;;;;;;;23.27;5.93;;;;;;;;;;5094897;28;20411;-79
2022/06/11 06:08:27;;;;;;;23.40;5.90;;;;;;;;;;5095170;28;20089;-80
2022/06/11 06:10:53;;;;;;;24.90;7.23;;;23.80;99.90;;;;;;5094716;28;20126;-79
2022/06/11 06:16:03;;;;;;;28.60;6.40;;;25.10;92.70;;;;;;5095093;28;20052;-80
2022/06/11 06:18:29;;;;;;;20.23;5.30;;;;;;;;;;5095142;28;20362;-80
2022/06/11 06:20:55;;;;;;;21.07;5.50;;;;;;;;;;5094607;28;20185;-80
2022/06/11 06:23:21;;;;;;;25.07;6.47;;;25.80;99.90;;;;;;5095285;28;20400;-80
2022/06/11 06:25:49;;;;;;;22.13;6.30;;;26.00;95.40;;;;;;5095105;28;20052;-81
2022/06/11 06:28:14;;;;;;;19.23;5.53;;;25.90;97.30;;;;;;5076754;28;20503;-80
2022/06/11 06:30:40;;;;;;;20.23;5.50;;;25.80;95.90;;;;;;5076722;28;20087;-80
2022/06/11 06:33:06;;;;;;;22.57;6.10;;;25.90;93.00;;;;;;5094440;28;20094;-78
2022/06/11 06:35:31;;;;;;;21.67;5.73;;;26.20;73.50;;;;;;5094515;28;20123;-80
2022/06/11 06:37:57;;;;;;;23.53;6.67;;;26.50;69.40;;;;;;5076614;28;20044;-80
2022/06/11 06:40:23;;;;;;;20.70;6.63;;;26.80;66.10;;;;;;5094305;28;20062;-81
2022/06/11 06:42:49;;;;;;;23.60;5.97;;;26.90;63.20;;;;;;5094374;28;20148;-73
2022/06/11 06:45:15;;;;;;;19.63;5.97;;;27.20;62.00;;;;;;5076293;28;20040;-78
2022/06/11 06:47:42;;;;;;;17.67;5.83;;;27.70;60.30;;;;;;5076503;28;20097;-78
2022/06/11 06:50:08;;;;;;;18.03;6.07;;;27.70;58.10;;;;;;5093899;28;20088;-78
2022/06/11 06:52:34;;;;;;;20.60;5.90;;;28.00;58.90;;;;;;5060130;28;20051;-79
2022/06/11 06:55:00;;;;;;;20.37;6.43;;;;;;;;;;5094300;28;20047;-78
2022/06/11 06:57:26;;;;;;;20.80;5.75;;;28.80;55.30;;;;;;5094552;28;20399;-78
2022/06/11 06:59:51;;;;;;;18.75;6.55;;;29.00;54.90;;;;;;5076295;28;20052;-79
2022/06/11 07:02:18;;;;;;;17.60;5.38;;;29.00;53.40;;;;;;5093276;28;20070;-79
2022/06/11 07:04:44;;;;;;;19.08;6.68;;;29.00;53.70;;;;;;5093960;28;20051;-79
2022/06/11 07:07:19;;;;;;;17.55;5.65;;;;;;;;;;5093758;28;20126;-78
2022/06/11 07:09:45;;;;;;;18.13;5.60;;;;;;;;;;5094113;28;20044;-79
2022/06/11 07:12:11;;;;;;;21.10;5.78;;;;;;;;;;5093566;28;20044;-79
2022/06/11 07:14:37;;;;;;;19.33;6.10;;;;;;;;;;5093854;28;20397;-79
2022/06/11 07:17:08;;;;;;;20.40;6.15;;;30.30;48.90;;;;;;5093300;28;20131;-78
2022/06/11 07:19:38;;;;;;;19.08;5.93;;;;;;;;;;5093846;28;20403;-78
2022/06/11 07:22:07;;;;;;;21.10;6.97;;;;;;;;;;5093789;28;20123;-78
2022/06/11 07:24:37;;;;;;;18.95;5.93;;;30.50;83.10;;;;;;5076032;28;20044;-78
2022/06/11 07:27:07;;;;;;;19.58;5.63;;;;;;;;;;5075896;28;20442;-78
2022/06/11 07:29:38;;;;;;;19.63;5.65;;;;;;;;;;5093738;28;20591;-78
2022/06/11 07:32:06;;;;;;;17.20;6.15;;;;;;;;;;5093769;28;20040;-78
2022/06/11 07:34:34;;;;;;;18.52;5.97;;;27.10;49.70;;;;;;5094112;28;20110;-78
2022/06/11 07:37:00;;;;;;;19.80;6.85;;;27.10;50.80;;;;;;5076035;28;20055;-78
2022/06/11 07:39:26;;;;;;;16.30;5.53;;;26.60;51.00;;;;;;5075254;28;20056;-78
2022/06/11 07:41:52;;;;;;;18.38;5.95;;;26.60;52.50;;;;;;5093539;28;20515;-78
2022/06/11 07:44:17;;;;;;;17.45;5.32;;;27.20;52.90;;;;;;5093134;28;20601;-78
2022/06/11 07:46:43;;;;;;;20.15;6.05;;;;;;;;;;5076163;28;20387;-79
2022/06/11 07:49:10;;;;;;;17.60;5.68;;;;;;;;;;5093478;28;20093;-77
2022/06/11 07:51:36;;;;;;;17.88;5.50;;;;;;;;;;5093652;28;20462;-79
2022/06/11 07:54:02;;;;;;;18.45;5.43;;;;;;;;;;5093467;28;20048;-79
2022/06/11 07:56:28;;;;;;;18.92;6.15;;;;;;;;;;5093119;28;20090;-79
2022/06/11 07:58:54;;;;;;;21.48;6.40;;;;;;;;;;5074952;28;20056;-78
2022/06/11 08:01:20;;;;;;;17.75;5.55;;;;;;;;;;5092918;28;20130;-79
2022/06/11 08:03:46;;;;;;;16.80;5.68;;;;;;;;;;5092933;28;20553;-79
2022/06/11 08:06:13;;;;;;;15.93;5.63;;;;;;;;;;5092768;28;20055;-79
2022/06/11 08:08:39;;;;;;;18.90;5.72;;;;;;;;;;5093041;28;20039;-79
2022/06/11 08:11:05;;;;;;;18.35;6.03;;;;;;;;;;5092953;28;20093;-80
2022/06/11 08:13:32;;;;;;;17.08;5.55;;;;;;;;;;5092780;28;20051;-79
2022/06/11 08:15:59;;;;;;;17.65;5.63;;;;;;;;;;5092858;28;20083;-79
2022/06/11 08:18:25;;;;;;;17.80;5.45;;;;;;;;;;5092638;28;20051;-80
2022/06/11 08:20:52;;;;;;;17.83;5.40;;;;;;;;;;5058176;28;20109;-79
2022/06/11 08:23:19;;;;;;;19.02;5.85;;;;;;;;;;5074452;28;20067;-77
2022/06/11 08:25:45;;;;;;;11.32;4.57;;;;;;;;;;5092657;28;20052;-79
2022/06/11 08:28:12;;;;;;;13.55;5.45;;;;;;;;;;5092487;28;20050;-77
2022/06/11 08:30:39;;;;;;;14.15;5.20;;;;;;;;;;5092899;28;20040;-78
2022/06/11 08:33:05;;;;;;;13.90;4.35;;;;;;;;;;5092797;28;20048;-78
2022/06/11 08:35:32;;;;;;;16.33;5.45;;;;;;;;;;5092490;28;20043;-78
2022/06/11 08:37:58;;;;;;;12.25;4.90;;;;;;;;;;5092609;28;20189;-78
2022/06/11 08:40:38;;;;;;;15.40;6.30;;;;;;;;;;5092098;28;20056;-77
2022/06/11 08:43:14;;;;;;;15.13;5.30;;;;;;;;;;5092754;28;20125;-77
2022/06/11 08:45:52;;;;;;;14.23;5.40;;;;;;;;;;5093056;28;20480;-78
2022/06/11 08:48:37;;;;;;;13.50;4.90;;;;;;;;;;5092407;28;20048;-79
2022/06/11 08:51:03;;;;;;;13.35;4.60;;;;;;;;;;5092713;28;20135;-80
2022/06/11 08:53:31;;;;;;;14.80;4.65;;;;;;;;;;5092645;28;20160;-75
2022/06/11 08:55:57;;;;;;;13.93;5.28;;;;;;;;;;5092858;28;20071;-80
2022/06/11 08:58:26;;;;;;;13.43;4.78;;;;;;;;;;5092492;28;20087;-80
2022/06/11 09:01:15;;;;;;;13.85;4.43;;;;;;;;;;5092884;28;20098;-80
2022/06/11 09:03:41;;;;;;;17.52;5.35;;;;;;;;;;5092906;28;20131;-78
2022/06/11 09:06:28;;;;;;;11.80;4.28;;;28.40;70.20;;;;;;5092881;28;20086;-77
2022/06/11 09:09:02;;;;;;;13.88;4.13;;;;;;;;;;5092705;28;20040;-78
2022/06/11 09:11:37;;;;;;;12.25;4.30;;;27.40;43.30;;;;;;5092399;28;20109;-77
2022/06/11 09:14:03;;;;;;;16.13;4.60;;;;;;;;;;5092773;28;20052;-78
2022/06/11 09:17:06;;;;;;;10.60;3.95;;;26.80;71.50;;;;;;5092402;28;20054;-78
2022/06/11 09:19:51;;;;;;;13.15;4.15;;;;;;;;;;5092289;28;20086;-78
2022/06/11 09:22:38;;;;;;;14.15;3.95;;;26.60;45.90;;;;;;5091938;28;20396;-75
2022/06/11 09:25:32;;;;;;;14.77;4.47;;;26.50;45.70;;;;;;5095280;28;20529;-77
2022/06/11 09:28:13;;;;;;;10.93;3.83;;;26.20;70.30;;;;;;5096425;28;20090;-76
2022/06/11 09:30:41;;;;;;;14.05;4.03;;;26.00;46.00;;;;;;5095939;28;20044;-77
2022/06/11 09:33:07;;;;;;;10.90;3.70;;;;;;;;;;5096159;28;20040;-77
2022/06/11 09:35:35;;;;;;;16.65;4.20;;;;;;;;;;5095940;28;20138;-77
2022/06/11 09:38:02;;;;;;;13.50;4.10;;;;;;;;;;5096161;28;20084;-78
2022/06/11 09:40:41;;;;;;;13.13;3.97;;;25.30;46.10;;;;;;5095878;28;20064;-77
2022/06/11 09:43:30;;;;;;;13.07;4.13;;;25.30;46.90;;;;;;5095823;28;20044;-76
2022/06/11 09:46:15;;;;;;;14.13;4.07;;;;;;;;;;5077845;28;20115;-77
2022/06/11 09:48:59;;;;;;;12.90;3.43;;;25.00;84.40;;;;;;5095626;28;20437;-76
2022/06/11 09:51:53;;;;;;;15.63;3.80;;;25.00;77.20;;;;;;5095116;28;20055;-77
2022/06/11 09:54:34;;;;;;;13.48;3.63;;;24.80;77.50;;;;;;5095568;28;20047;-74
2022/06/11 09:57:23;;;;;;;14.33;4.00;;;24.60;47.00;;;;;;5095523;28;20480;-77
2022/06/11 09:59:59;;;;;;;12.87;4.33;;;;;;;;;;5095583;28;20062;-77
2022/06/11 10:05:18;;;;;;;10.50;3.23;;;;;;;;;;5095649;28;20044;-77
2022/06/11 10:07:47;;;;;;;13.03;3.80;;;24.20;48.30;;;;;;5095167;28;20131;-77
2022/06/11 10:10:22;;;;;;;15.83;3.93;;;24.20;48.80;;;;;;5095252;28;20051;-77
2022/06/11 10:13:07;;;;;;;;;;;24.00;49.50;;;;;;5096145;28;20040;-78
2022/06/11 10:15:36;;;;;;;12.13;3.90;;;24.00;51.50;;;;;;5095024;28;19920;-80
2022/06/11 10:18:14;;;;;;;14.93;3.57;;;24.00;50.90;;;;;;5095282;28;20044;-79
2022/06/11 10:21:00;;;;;;;13.27;4.23;;;24.00;50.90;;;;;;5094941;28;20056;-79
2022/06/11 10:23:36;;;;;;;17.90;4.67;;;;;;;;;;5094996;28;20048;-80
2022/06/11 10:26:05;;;;;;;14.50;4.07;;;;;;;;;;5095032;28;20503;-80
2022/06/11 10:28:52;;;;;;;13.80;4.13;;;23.90;49.40;;;;;;5094781;28;20079;-79
2022/06/11 10:31:25;;;;;;;18.03;4.70;;;23.80;50.40;;;;;;5095311;28;20055;-77
2022/06/11 10:34:03;;;;;;;14.47;4.33;;;23.60;50.20;;;;;;5094621;28;20040;-77
2022/06/11 10:36:36;;;;;;;12.07;3.97;;;23.60;51.60;;;;;;5094608;28;20051;-79
2022/06/11 10:39:09;;;;;;;10.75;3.28;;;23.60;52.00;;;;;;5094571;28;20066;-76
2022/06/11 10:41:37;;;;;;;12.73;3.50;;;23.60;52.50;;;;;;5094236;28;20465;-77
2022/06/11 10:44:17;;;;;;;13.57;4.03;;;23.60;52.40;;;;;;5094750;28;20051;-81
2022/06/11 10:46:43;;;;;;;12.27;3.60;;;23.60;52.60;;;;;;5094503;28;20102;-80
2022/06/11 10:49:17;;;;;;;12.27;3.83;;;23.50;52.80;;;;;;5094635;28;20407;-71
2022/06/11 10:52:12;;;;;;;16.65;4.20;;;23.50;51.80;;;;;;5093370;28;20040;-79
2022/06/11 10:54:40;;;;;;;13.10;3.97;;;23.40;51.50;;;;;;5083186;28;20139;-80
2022/06/11 10:57:16;;;;;;;16.43;4.57;;;23.30;52.50;;;;;;5092659;28;20500;-79
2022/06/11 10:59:50;;;;;;;15.17;4.07;;;23.30;52.00;;;;;;5094128;28;20048;-77
2022/06/11 11:02:16;;;;;;;13.32;3.92;;;;;;;;;;5076331;28;20080;-77
2022/06/11 11:04:55;;;;;;;14.67;3.17;;;23.10;51.40;;;;;;5094084;28;20058;-76
2022/06/11 11:07:24;;;;;;;14.13;3.97;;;23.10;53.00;;;;;;5076492;28;20056;-78
2022/06/11 11:09:55;;;;;;;11.87;3.47;;;23.00;51.50;;;;;;5093741;28;20480;-78
2022/06/11 11:12:35;;;;;;;13.33;3.70;;;23.00;51.70;;;;;;5076369;28;20480;-77
2022/06/11 11:15:10;;;;;;;12.80;3.87;;;22.90;52.00;;;;;;5076515;28;20052;-76
2022/06/11 11:17:45;;;;;;;12.00;3.73;;;22.80;52.20;;;;;;5094064;28;20140;-76
2022/06/11 11:20:33;;;;;;;16.70;3.83;;;22.80;53.20;;;;;;5094373;28;20047;-76
2022/06/11 11:23:07;;;;;;;13.33;3.77;;;22.80;53.40;;;;;;5093874;28;20127;-77
2022/06/11 11:25:35;;;;;;;;;;;22.70;53.70;;;;;;5094006;28;20117;-76
2022/06/11 11:28:03;;;;;;;16.93;4.33;;;22.60;54.10;;;;;;5093861;28;20015;-76
2022/06/11 11:30:36;;;;;;;11.63;3.30;;;22.60;55.10;;;;;;5094021;28;20395;-72
2022/06/11 11:33:19;;;;;;;12.87;3.10;;;22.80;53.40;;;;;;5093777;28;20062;-78
2022/06/11 11:35:45;;;;;;;15.50;3.60;;;22.70;52.60;;;;;;5093283;28;20048;-77
2022/06/11 11:38:11;;;;;;;10.97;3.20;;;22.70;53.10;;;;;;5094045;28;20046;-77
2022/06/11 11:40:50;;;;;;;10.77;3.23;;;22.70;52.50;;;;;;5093042;28;20059;-75
2022/06/11 11:43:17;;;;;;;9.10;2.87;;;22.60;52.70;;;;;;5093819;28;20048;-76
2022/06/11 11:45:59;;;;;;;11.40;3.13;;;22.50;53.90;;;;;;5093249;28;20113;-77
2022/06/11 11:48:30;;;;;;;11.80;2.97;;;22.40;54.90;;;;;;5093447;28;20087;-77
2022/06/11 11:51:12;;;;;;;7.83;2.60;;;22.50;53.90;;;;;;5092048;28;20136;-77
2022/06/11 11:54:14;;;;;;;11.83;3.07;;;22.50;53.40;;;;;;5093260;28;20055;-77
2022/06/11 11:56:44;;;;;;;10.50;2.93;;;22.40;53.50;;;;;;5071014;28;20052;-77
2022/06/11 11:59:17;;;;;;;11.87;2.87;;;22.30;54.00;;;;;;5093453;28;20108;-77
2022/06/11 12:01:45;;;;;;;9.57;3.00;;;22.30;54.80;;;;;;5093084;28;20051;-77
2022/06/11 12:04:20;;;;;;;12.40;3.40;;;22.20;55.40;;;;;;5093307;28;20136;-77
2022/06/11 12:06:51;;;;;;;13.10;3.43;;;;;;;;;;5092982;28;20043;-77
2022/06/11 12:09:25;;;;;;;11.17;3.20;;;22.20;55.10;;;;;;5075596;28;20079;-77
2022/06/11 12:12:19;;;;;;;12.80;3.30;;;22.20;56.00;;;;;;5093022;28;20040;-76
2022/06/11 12:14:59;;;;;;;10.37;3.03;;;22.20;56.00;;;;;;5057806;28;20178;-77
2022/06/11 12:17:40;;;;;;;9.87;2.60;;;22.20;56.30;;;;;;5092979;28;20051;-77
2022/06/11 12:20:37;;;;;;;12.57;3.20;;;22.20;56.80;;;;;;5093248;28;20052;-77
2022/06/11 12:23:17;;;;;;;14.93;3.80;;;22.10;56.50;;;;;;5092725;28;20052;-78
2022/06/11 12:25:49;;;;;;;12.60;3.33;;;22.10;56.70;;;;;;5092533;28;20051;-76
2022/06/11 12:28:20;;;;;;;12.90;3.40;;;22.10;56.50;;;;;;5093097;28;20043;-77
2022/06/11 12:30:47;;;;;;;11.77;3.57;;;22.10;56.50;;;;;;5092803;28;20048;-77
2022/06/11 12:33:13;;;;;;;10.43;3.20;;;22.00;56.70;;;;;;5092928;28;20536;-77
2022/06/11 12:35:48;;;;;;;10.70;3.77;;;22.00;56.50;;;;;;5092840;28;20036;-76
2022/06/11 12:38:14;;;;;;;;;;;21.90;58.20;;;;;;5093072;28;20488;-77
2022/06/11 12:40:50;;;;;;;12.93;3.70;;;21.90;58.80;;;;;;5092607;28;19927;-77
2022/06/11 12:43:37;;;;;;;13.57;3.97;;;22.00;59.20;;;;;;5092799;28;20084;-79
2022/06/11 12:46:12;;;;;;;13.07;3.90;;;22.00;59.70;;;;;;5092580;28;20070;-77
2022/06/11 12:48:43;;;;;;;14.13;3.53;;;21.90;59.50;;;;;;5092672;28;20059;-77
2022/06/11 12:51:32;;;;;;;14.07;3.97;;;22.00;59.50;;;;;;5092915;28;20134;-77
2022/06/11 12:54:17;;;;;;;15.67;3.33;;;21.90;58.90;;;;;;5092493;28;20055;-77
2022/06/11 12:57:07;;;;;;;14.30;3.67;;;22.00;60.30;;;;;;5092462;28;20131;-76
2022/06/11 12:59:47;;;;;;;16.10;4.20;;;22.00;60.80;;;;;;5095003;28;20044;-78
2022/06/11 13:02:28;;;;;;;12.97;3.80;;;22.00;61.10;;;;;;5096752;28;20040;-78
2022/06/11 13:05:07;;;;;;;15.27;4.10;;;22.00;61.90;;;;;;5096393;28;20044;-78
2022/06/11 13:07:55;;;;;;;14.87;4.00;;;22.00;60.10;;;;;;5096531;28;20126;-77
2022/06/11 13:10:46;;;;;;;14.30;3.77;;;22.00;61.50;;;;;;5096685;28;20051;-77
2022/06/11 13:13:27;;;;;;;15.50;4.07;;;22.00;62.60;;;;;;5094027;28;20510;-77
2022/06/11 13:16:04;;;;;;;14.10;3.67;;;22.00;61.60;;;;;;5096029;28;20050;-77
2022/06/11 13:18:39;;;;;;;17.17;4.13;;;21.90;61.80;;;;;;5096436;28;20492;-77
2022/06/11 13:21:07;;;;;;;15.10;3.57;;;21.90;62.20;;;;;;5096188;28;20079;-77
2022/06/11 13:23:57;;;;;;;11.77;3.83;;;21.90;63.10;;;;;;5096268;28;20046;-77
2022/06/11 13:26:51;;;;;;;16.10;3.73;;;22.00;63.60;;;;;;5096243;28;20081;-78
2022/06/11 13:29:54;;;;;;;13.03;4.03;;;22.00;63.10;;;;;;5096401;28;20377;-77
2022/06/11 13:32:20;;;;;;;14.17;4.03;;;22.10;62.60;;;;;;5096017;28;20044;-77
2022/06/11 13:34:54;;;;;;;16.87;4.87;;;22.00;63.00;;;;;;5095979;28;20044;-78
2022/06/11 13:37:20;;;;;;;;;;;22.00;63.30;;;;;;5096574;28;20073;-77
2022/06/11 13:40:09;;;;;;;15.47;3.63;;;22.00;63.30;;;;;;5096058;28;19919;-77
2022/06/11 13:42:40;;;;;;;16.07;4.00;;;22.00;63.30;;;;;;5089906;28;20055;-76
2022/06/11 13:45:18;;;;;;;16.57;4.63;;;22.00;64.60;;;;;;5095421;28;20130;-77